FW4090 Wirral UK current weather conditions

sailwx.info

Wind from 297 at 11 knots gusting 20

Air temperature 5.6° C
Dewpoint 2.4° C

Last reported at 2020-Feb-18 22:10 UTC.
Time now 2020-Feb-18 23:15 UTC

Location: N 53°23' W 003°06'.
View on Google Maps.

See reports from other nearby stations

  
Tides and Currents Weather Stations Pressure Air Temp Water Temp Dewpoint Dewpoint Depression Visibility Wind Speed Wind Dir Waves Ship Positions
date/time (UTC)wind fromknots sea level pressurealtimeterstation pressurevisibilityair tempwater tempwave heightnotes
2020-Feb-18 22:10 297 11 gusting 20 5.6
2020-Feb-18 21:55 283 10 gusting 19 5.6
2020-Feb-18 21:40 301 12 gusting 21 5.6
2020-Feb-18 21:25 315 9 gusting 26 5.6
2020-Feb-18 21:10 279 9 gusting 23 5.6
2020-Feb-18 20:54 248 11 gusting 23 5.6
2020-Feb-18 20:39 306 10 gusting 20 6.1
2020-Feb-18 20:24 309 10 gusting 23 6.1
2020-Feb-18 20:09 262 9 gusting 24 6.1
2020-Feb-18 19:54 248 7 gusting 20 6.1
2020-Feb-18 19:40 269 7 gusting 15 5.6
2020-Feb-18 19:24 219 8 gusting 17 5.6
2020-Feb-18 19:09 267 8 gusting 17 5.6
2020-Feb-18 18:54 287 9 gusting 17 5.6
2020-Feb-18 18:39 260 10 gusting 20 5.0
2020-Feb-18 18:24 272 9 gusting 18 5.0
2020-Feb-18 18:09 255 7 gusting 17 4.4
2020-Feb-18 17:54 274 9 gusting 26 3.9
2020-Feb-18 17:39 237 14 gusting 42 4.4
2020-Feb-18 17:24 250 10 gusting 20 7.2
2020-Feb-18 17:09 265 11 gusting 22 7.2
2020-Feb-18 16:54 259 9 gusting 17 7.2
2020-Feb-18 16:39 276 9 gusting 21 7.2
2020-Feb-18 16:24 275 10 gusting 21 7.2
2020-Feb-18 16:10 250 10 gusting 21 7.2
2020-Feb-18 15:54 290 10 gusting 21 7.8
2020-Feb-18 15:47 257 9 gusting 18 7.2
2020-Feb-18 15:24 240 8 gusting 19 7.2
2020-Feb-18 15:09 243 11 gusting 19 7.2
2020-Feb-18 14:54 249 13 gusting 31 8.3
2020-Feb-18 14:39 249 11 gusting 20 8.9
2020-Feb-18 14:24 273 8 gusting 19 8.9
2020-Feb-18 14:09 307 6 gusting 13 8.3
2020-Feb-18 13:54 231 8 gusting 16 8.3
2020-Feb-18 13:39 231 8 gusting 17 8.3
2020-Feb-18 13:24 200 9 gusting 22 7.8
2020-Feb-18 13:09 216 11 gusting 25 7.8
2020-Feb-18 12:54 262 11 gusting 21 8.3
2020-Feb-18 12:39 179 11 gusting 25 8.9
2020-Feb-18 12:24 173 11 gusting 20 8.9
2020-Feb-18 12:09 260 10 gusting 21 9.4
2020-Feb-18 11:54 252 10 gusting 19 9.4
2020-Feb-18 11:39 165 9 gusting 18 8.9
2020-Feb-18 11:24 217 7 gusting 19 8.9
2020-Feb-18 11:09 274 7 gusting 17 8.9
2020-Feb-18 10:54 173 7 gusting 14 8.9
2020-Feb-18 10:39 210 6 gusting 13 8.9
2020-Feb-18 10:24 264 6 gusting 14 8.3
2020-Feb-18 10:09 219 4 gusting 8 8.3
2020-Feb-18 09:54 274 5 gusting 13 7.8
2020-Feb-18 09:39 221 5 gusting 12 7.2
2020-Feb-18 09:24 217 4 gusting 11 7.2
2020-Feb-18 09:10 257 4 gusting 11 6.7
2020-Feb-18 08:54 226 6 gusting 11 6.7
2020-Feb-18 08:39 272 6 gusting 13 6.7
2020-Feb-18 08:24 281 7 gusting 15 6.7
2020-Feb-18 08:09 231 7 gusting 16 6.7
2020-Feb-18 07:54 233 7 gusting 15 6.7
2020-Feb-18 07:39 233 7 gusting 17 6.7
2020-Feb-18 07:24 188 6 gusting 15 6.1
2020-Feb-18 07:09 158 7 gusting 14 6.1
2020-Feb-18 06:54 225 6 gusting 13 6.1
2020-Feb-18 06:39 205 5 gusting 12 6.1
2020-Feb-18 06:24 279 6 gusting 14 5.6
2020-Feb-18 06:09 285 5 gusting 13 5.6
2020-Feb-18 05:54 217 5 gusting 10 5.6
2020-Feb-18 05:39 223 5 gusting 12 5.6
2020-Feb-18 05:24 231 5 gusting 11 5.6
2020-Feb-18 05:09 221 4 gusting 10 5.6
2020-Feb-18 04:54 221 5 gusting 10 5.0
2020-Feb-18 04:39 212 4 gusting 12 5.0
2020-Feb-18 04:24 191 4 gusting 12 5.6
2020-Feb-18 04:09 275 5 gusting 13 5.6
2020-Feb-18 03:54 225 6 gusting 14 5.6
2020-Feb-18 03:39 283 7 gusting 14 5.6
2020-Feb-18 03:24 257 6 gusting 15 5.6
2020-Feb-18 03:09 247 7 gusting 19 5.6
2020-Feb-18 02:54 276 6 gusting 15 5.6
2020-Feb-18 02:39 264 7 gusting 16 5.6
2020-Feb-18 02:24 223 7 gusting 17 5.6
2020-Feb-18 02:09 250 7 gusting 18 5.6
2020-Feb-18 01:54 288 8 gusting 17 5.6
2020-Feb-18 01:39 244 6 gusting 14 5.6
2020-Feb-18 01:24 225 6 gusting 15 5.6
2020-Feb-18 01:09 208 7 gusting 16 5.6
2020-Feb-18 00:54 262 7 gusting 18 5.6
2020-Feb-18 00:39 291 8 gusting 20 5.6
2020-Feb-18 00:24 228 7 gusting 16 5.6
2020-Feb-18 00:09 252 8 gusting 16 5.6
2020-Feb-17 23:54 238 8 gusting 21 5.6
2020-Feb-17 23:39 268 8 gusting 16 5.6
2020-Feb-17 23:24 146 8 gusting 17 5.6
2020-Feb-17 23:09 190 10 gusting 19 5.6
2020-Feb-17 22:54 265 9 gusting 20 5.6
2020-Feb-17 22:39 250 10 gusting 19 5.6
2020-Feb-17 22:24 273 9 gusting 21 5.6
2020-Feb-17 22:09 234 9 gusting 19 5.6
2020-Feb-17 21:54 261 10 gusting 22 5.6
2020-Feb-17 21:39 258 13 gusting 27 5.6
2020-Feb-17 21:24 293 11 gusting 29 5.6
2020-Feb-17 21:09 296 13 gusting 24 6.1
2020-Feb-17 20:54 250 11 gusting 23 6.1
2020-Feb-17 20:39 292 10 gusting 22 6.1
2020-Feb-17 20:32 250 9 gusting 22 6.1
2020-Feb-17 20:09 236 9 gusting 25 6.1
2020-Feb-17 19:54 264 10 gusting 22 6.7
2020-Feb-17 19:39 206 7 gusting 18 6.1
2020-Feb-17 19:24 195 9 gusting 18 6.1
2020-Feb-17 19:09 283 11 gusting 21 6.7
2020-Feb-17 18:54 271 9 gusting 24 6.7
2020-Feb-17 18:39 276 8 gusting 19 6.7
2020-Feb-17 18:24 245 7 gusting 19 6.7
2020-Feb-17 18:09 242 7 gusting 17 6.7
2020-Feb-17 17:54 291 7 gusting 13 6.7
2020-Feb-17 17:39 207 6 gusting 13 6.1
2020-Feb-17 17:24 226 6 gusting 15 6.7
2020-Feb-17 17:09 288 8 gusting 16 6.7
2020-Feb-17 16:54 212 6 gusting 14 6.7
2020-Feb-17 16:39 187 8 gusting 21 6.1
2020-Feb-17 16:24 298 12 gusting 25 7.8
2020-Feb-17 15:54 255 7 gusting 19 7.8
2020-Feb-17 15:39 276 9 gusting 23 7.8
2020-Feb-17 15:24 277 10 gusting 25 8.3
2020-Feb-17 15:09 264 6 gusting 15 8.3
2020-Feb-17 14:54 270 8 gusting 16 8.9
2020-Feb-17 14:39 271 9 gusting 18 8.9
2020-Feb-17 14:24 283 9 gusting 18 8.9
2020-Feb-17 14:09 250 8 gusting 19 8.9
2020-Feb-17 13:54 226 8 gusting 19 8.9
2020-Feb-17 13:39 282 10 gusting 22 8.9
2020-Feb-17 13:24 238 7 gusting 15 9.4
2020-Feb-17 13:09 237 8 gusting 20 9.4
2020-Feb-17 12:54 233 9 gusting 18 8.9
2020-Feb-17 12:39 311 11 gusting 22 8.9
2020-Feb-17 12:24 120 10 gusting 22 8.9
2020-Feb-17 12:09 285 11 gusting 21 8.9
2020-Feb-17 11:54 274 13 gusting 24 9.4
2020-Feb-17 11:39 209 9 gusting 19 8.9
2020-Feb-17 11:24 282 10 gusting 21 8.9
2020-Feb-17 11:09 262 10 gusting 20 8.9
2020-Feb-17 10:54 311 8 gusting 15 8.9
2020-Feb-17 10:39 273 7 gusting 18 8.3
2020-Feb-17 10:24 273 6 gusting 14 8.3
2020-Feb-17 10:09 286 6 gusting 15 8.3
2020-Feb-17 09:54 238 6 gusting 13 8.3
2020-Feb-17 09:39 273 6 gusting 16 8.3
2020-Feb-17 09:24 262 4 gusting 11 7.8
2020-Feb-17 09:09 258 5 gusting 11 7.8
2020-Feb-17 08:54 263 4 gusting 10 7.2
2020-Feb-17 08:39 242 3 gusting 8 6.7
2020-Feb-17 08:24 201 3 gusting 12 6.7
2020-Feb-17 08:09 208 5 gusting 12 6.7
2020-Feb-17 07:54 232 4 gusting 10 6.7
2020-Feb-17 07:39 207 5 gusting 11 6.7
2020-Feb-17 07:24 224 5 gusting 15 6.7
2020-Feb-17 07:09 255 6 gusting 17 6.7
2020-Feb-17 06:54 216 8 gusting 19 6.7
2020-Feb-17 06:39 227 8 gusting 21 6.7
2020-Feb-17 06:24 213 11 gusting 21 6.7
2020-Feb-17 06:09 262 12 gusting 23 7.2
2020-Feb-17 05:54 240 12 gusting 26 7.2
2020-Feb-17 05:39 221 12 gusting 26 7.2
2020-Feb-17 05:24 302 12 gusting 29 7.2
2020-Feb-17 05:09 245 10 gusting 26 7.2
2020-Feb-17 04:54 226 11 gusting 24 6.7
2020-Feb-17 04:39 215 11 gusting 22 6.7
2020-Feb-17 04:24 220 12 gusting 23 6.7
2020-Feb-17 04:09 257 13 gusting 27 6.7
2020-Feb-17 03:54 237 13 gusting 28 6.7
2020-Feb-17 03:39 233 13 gusting 26 6.7
2020-Feb-17 03:24 287 12 gusting 22 7.2
2020-Feb-17 03:09 273 13 gusting 27 7.2
2020-Feb-17 02:54 230 13 gusting 25 7.2
2020-Feb-17 02:39 191 11 gusting 25 7.2
2020-Feb-17 02:24 251 13 gusting 31 7.2
2020-Feb-17 02:09 250 13 gusting 24 7.2
2020-Feb-17 01:54 226 12 gusting 26 7.2
2020-Feb-17 01:39 207 11 gusting 25 7.2
2020-Feb-17 01:24 221 13 gusting 30 7.2
2020-Feb-17 01:09 214 13 gusting 25 6.7
2020-Feb-17 00:54 233 11 gusting 20 6.7
2020-Feb-17 00:39 210 12 gusting 23 6.7
2020-Feb-17 00:24 219 13 gusting 25 6.7
2020-Feb-17 00:09 207 13 gusting 25 6.7
2020-Feb-16 23:54 252 11 gusting 24 6.7
2020-Feb-16 23:39 238 12 gusting 25 6.7
2020-Feb-16 23:24 253 12 gusting 26 6.7
2020-Feb-16 23:09 236 12 gusting 22 6.7